Terminal Aerodrome Forecast
Issued by NWS Portland, OR

Home | Current Version | Previous Version | Text Only | Print | Product List | Glossary On
Versions: 1 2 3 4 5 6 7 8 9 10 11 12 13 14 15 16 17 18 19 20 21 22 23 24 25 26 27 28 29 30 31 32 33 34 35 36 37 38
000
FTUS46 KPQR 210532
TAFHIO
TAF
KHIO 210532Z 2106/2206 VRB02KT P6SM SCT020 BKN090
     FM210900 VRB03KT 5SM -RA BR BKN020 OVC045
     FM211200 VRB03KT 3SM -RA BR SCT008 OVC018
     FM211800 16004KT 5SM -RA BR BKN018 OVC035
     FM212100 19005KT 6SM -RA SCT020 OVC040
     FM220200 VRB03KT 4SM -RA BR BKN012 OVC025=

USA.gov is the U.S. government's official web portal to all federal, state and local government web resources and services.